createdAt,value
2018-12-13T04:27:35.937Z,4.30
2018-12-13T04:30:08.890Z,4.20
2018-12-13T04:32:44.016Z,4.30
2018-12-13T04:35:16.364Z,4.30
2018-12-13T04:37:48.668Z,4.20
2018-12-13T04:40:23.840Z,4.20
2018-12-13T04:42:56.508Z,4.20
2018-12-13T04:45:29.113Z,4.20
2018-12-13T04:48:02.148Z,4.30
2018-12-13T04:50:41.074Z,4.20
2018-12-13T04:53:13.779Z,4.20
2018-12-13T04:55:46.182Z,4.20
2018-12-13T04:58:18.624Z,4.10
2018-12-13T05:00:51.056Z,4.10
2018-12-13T05:03:21.208Z,4.00
2018-12-13T05:05:53.796Z,4.00
2018-12-13T05:08:26.884Z,4.10
2018-12-13T05:10:59.198Z,4.00
2018-12-13T05:13:31.521Z,4.10
2018-12-13T05:16:04.238Z,4.00
2018-12-13T05:18:40.929Z,4.00
2018-12-13T05:21:14.070Z,4.10
2018-12-13T05:23:46.291Z,3.90
2018-12-13T05:26:18.701Z,3.90
2018-12-13T05:28:50.843Z,3.80
2018-12-13T05:31:25.951Z,3.80
2018-12-13T05:33:58.891Z,3.80
2018-12-13T05:36:31.216Z,3.80
2018-12-13T05:39:07.034Z,3.90
2018-12-13T05:41:39.848Z,3.90
2018-12-13T05:44:09.057Z,4.00
2018-12-13T05:46:39.478Z,3.90
2018-12-13T05:49:09.677Z,3.80
2018-12-13T05:51:38.912Z,3.70
2018-12-13T05:54:08.173Z,3.60
2018-12-13T05:56:38.074Z,3.60
2018-12-13T05:59:07.177Z,3.60
2018-12-13T06:01:37.962Z,3.60
2018-12-13T06:04:07.163Z,3.60
2018-12-13T06:06:45.555Z,3.50
2018-12-13T06:09:14.712Z,3.50
2018-12-13T06:11:43.827Z,3.70
2018-12-13T06:14:12.928Z,3.70
2018-12-13T06:16:42.136Z,3.60
2018-12-13T06:19:11.241Z,3.70
2018-12-13T06:21:40.461Z,3.60
2018-12-13T06:24:09.575Z,3.60
2018-12-13T06:26:38.687Z,3.60
2018-12-13T06:29:07.781Z,3.60
2018-12-13T06:31:36.998Z,3.70
2018-12-13T06:34:06.079Z,3.70
2018-12-13T06:36:35.139Z,3.70
2018-12-13T06:39:06.734Z,3.70
2018-12-13T06:41:37.281Z,3.60
2018-12-13T06:44:08.017Z,3.50
2018-12-13T06:46:38.416Z,3.50
2018-12-13T06:49:10.537Z,3.60
2018-12-13T06:51:45.290Z,3.50
2018-12-13T06:54:16.216Z,3.50
2018-12-13T06:56:52.631Z,3.60
2018-12-13T06:59:27.250Z,3.60
2018-12-13T07:02:00.089Z,3.60
2018-12-13T07:04:32.597Z,3.40
2018-12-13T07:07:07.150Z,3.30
2018-12-13T07:09:39.268Z,3.20
2018-12-13T07:12:11.343Z,3.30
2018-12-13T07:14:43.704Z,3.40
2018-12-13T07:17:15.803Z,3.30
2018-12-13T07:19:49.236Z,3.30
2018-12-13T07:22:21.336Z,3.40
2018-12-13T07:24:51.841Z,3.40
2018-12-13T07:27:27.444Z,3.50
2018-12-13T07:30:02.440Z,3.50
2018-12-13T07:37:41.473Z,3.30
2018-12-13T07:40:13.995Z,3.30
2018-12-13T07:42:46.389Z,3.40
2018-12-13T07:45:18.807Z,3.40
2018-12-13T07:47:51.430Z,3.30
2018-12-13T07:50:23.748Z,3.30
2018-12-13T07:52:55.892Z,3.30
2018-12-13T07:55:28.297Z,3.30
2018-12-13T07:58:00.815Z,3.30
2018-12-13T08:03:33.648Z,3.20
2018-12-13T08:06:02.833Z,3.40
2018-12-13T08:08:31.920Z,3.30
2018-12-13T08:11:01.062Z,3.30
2018-12-13T08:13:30.163Z,3.30
2018-12-13T08:15:59.276Z,3.30
2018-12-13T08:18:30.370Z,3.30
2018-12-13T08:21:01.487Z,3.30
2018-12-13T08:23:30.652Z,3.40
2018-12-13T08:25:59.769Z,3.40
2018-12-13T08:28:29.912Z,3.40
2018-12-13T08:30:59.045Z,3.30
2018-12-13T08:33:28.133Z,3.20
2018-12-13T08:35:57.285Z,3.30
2018-12-13T08:38:27.377Z,3.20
2018-12-13T08:43:59.631Z,3.30
2018-12-13T08:46:28.736Z,3.40
2018-12-13T08:48:57.784Z,3.40
2018-12-13T08:51:26.869Z,3.40
2018-12-13T08:53:55.924Z,3.40
2018-12-13T08:56:25.028Z,3.40
2018-12-13T08:58:54.147Z,3.40
2018-12-13T09:01:23.320Z,3.40
2018-12-13T09:03:52.410Z,3.40
2018-12-13T09:06:21.498Z,3.40
2018-12-13T09:08:50.553Z,3.50
2018-12-13T09:11:19.643Z,3.50
2018-12-13T09:13:48.721Z,3.50
2018-12-13T09:16:17.857Z,3.60
2018-12-13T09:18:46.916Z,3.60
2018-12-13T09:21:16.008Z,3.70
2018-12-13T09:23:45.145Z,3.80
2018-12-13T09:26:14.196Z,3.70
2018-12-13T09:28:43.276Z,3.80
2018-12-13T09:31:12.380Z,3.90
2018-12-13T09:33:41.455Z,3.90
2018-12-13T09:36:10.597Z,3.80
2018-12-13T09:38:40.039Z,3.80
2018-12-13T09:41:09.203Z,3.70
2018-12-13T09:43:38.329Z,3.80
2018-12-13T09:46:07.458Z,3.80
2018-12-13T09:48:36.591Z,3.90
2018-12-13T09:51:05.846Z,3.80
2018-12-13T09:53:34.979Z,3.70
2018-12-13T09:56:04.061Z,3.70
2018-12-13T09:58:33.173Z,3.80
2018-12-13T10:01:02.258Z,3.80
2018-12-13T10:03:31.372Z,3.90
2018-12-13T10:06:00.481Z,3.80
2018-12-13T10:08:29.617Z,3.90
2018-12-13T10:10:58.773Z,3.90
2018-12-13T10:13:27.998Z,4.10
2018-12-13T10:15:57.072Z,4.00
2018-12-13T10:18:26.145Z,4.00
2018-12-13T10:20:55.212Z,4.00
2018-12-13T10:23:24.329Z,4.00
2018-12-13T10:25:59.376Z,4.00
2018-12-13T10:28:24.460Z,4.00
2018-12-13T10:30:53.543Z,3.90
2018-12-13T10:33:22.679Z,3.90
2018-12-13T10:35:51.758Z,3.90
2018-12-13T10:38:20.874Z,3.80
2018-12-13T10:40:50.084Z,3.70
2018-12-13T10:43:19.192Z,3.80
2018-12-13T10:45:48.478Z,3.70
2018-12-13T10:48:17.563Z,3.70
2018-12-13T10:50:46.693Z,3.80
2018-12-13T10:53:15.804Z,3.80
2018-12-13T10:55:44.863Z,3.90
2018-12-13T10:58:13.947Z,4.00
2018-12-13T11:00:48.141Z,4.00
2018-12-13T11:03:24.776Z,4.00
2018-12-13T11:05:54.864Z,4.00
2018-12-13T11:08:24.988Z,4.00
2018-12-13T11:11:14.224Z,4.00
2018-12-13T11:13:43.343Z,4.00
2018-12-13T11:16:12.440Z,4.20
2018-12-13T11:18:41.641Z,4.20
2018-12-13T11:21:10.720Z,4.20
2018-12-13T11:23:39.805Z,4.20
2018-12-13T11:26:08.875Z,4.30
2018-12-13T11:29:15.750Z,4.30
2018-12-13T11:31:45.095Z,4.50
2018-12-13T11:34:14.192Z,4.50
2018-12-13T11:36:43.309Z,4.60
2018-12-13T11:39:12.402Z,4.50
2018-12-13T11:41:41.517Z,4.60
2018-12-13T11:44:10.661Z,4.60
2018-12-13T11:46:40.588Z,4.70
2018-12-13T11:49:12.269Z,4.50
2018-12-13T11:51:40.911Z,4.60
2018-12-13T11:54:20.085Z,4.70
2018-12-13T11:56:49.751Z,4.60
2018-12-13T11:59:18.822Z,4.50
2018-12-13T12:01:47.938Z,4.60
2018-12-13T12:04:17.009Z,4.50
2018-12-13T12:06:46.103Z,4.40
2018-12-13T12:09:15.191Z,4.40
2018-12-13T12:11:44.987Z,4.30
2018-12-13T12:14:14.068Z,4.30
2018-12-13T12:16:43.217Z,4.30
2018-12-13T12:19:12.300Z,4.30
2018-12-13T12:21:41.409Z,4.30
2018-12-13T12:24:10.481Z,4.30
2018-12-13T12:26:39.576Z,4.40
2018-12-13T12:29:10.684Z,4.50
2018-12-13T12:31:39.806Z,4.50
2018-12-13T12:34:08.868Z,4.50
2018-12-13T12:36:37.980Z,4.60
2018-12-13T12:39:07.875Z,4.70
2018-12-13T12:41:37.332Z,4.80
2018-12-13T12:44:06.445Z,4.80
2018-12-13T12:46:35.532Z,4.80
2018-12-13T12:49:04.728Z,4.90
2018-12-13T12:51:33.830Z,4.80
2018-12-13T12:54:03.023Z,4.90
2018-12-13T12:56:32.109Z,5.00
2018-12-13T12:59:01.242Z,5.10
2018-12-13T13:01:30.363Z,5.10
2018-12-13T13:03:59.516Z,5.10
2018-12-13T13:06:28.717Z,5.20
2018-12-13T13:08:57.917Z,5.20
2018-12-13T13:11:27.048Z,5.10
2018-12-13T13:13:56.258Z,5.10
2018-12-13T13:16:25.308Z,5.10
2018-12-13T13:18:54.405Z,5.00
2018-12-13T13:21:23.476Z,5.00
2018-12-13T13:23:52.584Z,5.10
2018-12-13T13:26:21.685Z,4.90
2018-12-13T13:28:50.774Z,5.00
2018-12-13T13:31:19.850Z,4.90
2018-12-13T13:33:49.002Z,4.90
2018-12-13T13:36:18.074Z,5.00
2018-12-13T13:38:47.177Z,4.90
2018-12-13T13:41:22.551Z,4.90
2018-12-13T13:43:57.451Z,4.80
2018-12-13T13:46:26.622Z,4.80
2018-12-13T13:48:55.728Z,4.80
2018-12-13T13:51:24.953Z,4.90
2018-12-13T13:53:54.047Z,4.80
2018-12-13T13:56:23.139Z,4.80
2018-12-13T13:58:53.948Z,4.80
2018-12-13T14:01:35.766Z,4.90
2018-12-13T14:04:05.048Z,4.90
2018-12-13T14:06:34.267Z,4.80
2018-12-13T14:09:05.124Z,4.80
2018-12-13T14:14:28.135Z,4.90
2018-12-13T14:17:19.964Z,4.90
2018-12-13T14:19:49.108Z,4.80
2018-12-13T14:22:18.203Z,4.80
2018-12-13T14:24:47.291Z,4.90
2018-12-13T14:27:16.590Z,4.90
2018-12-13T14:29:47.285Z,4.90
2018-12-13T14:32:16.306Z,4.90
2018-12-13T14:34:45.453Z,4.80
2018-12-13T14:37:14.512Z,4.70
2018-12-13T14:39:44.511Z,4.70
2018-12-13T14:42:15.992Z,4.90
2018-12-13T14:44:45.597Z,4.80
2018-12-13T14:47:14.714Z,4.80
2018-12-13T14:49:43.869Z,4.80
2018-12-13T14:52:12.961Z,4.70
2018-12-13T14:54:42.159Z,4.70
2018-12-13T14:57:12.265Z,4.70
2018-12-13T14:59:46.955Z,4.60
2018-12-13T15:02:14.019Z,4.60
2018-12-13T15:04:45.667Z,4.70
2018-12-13T15:07:18.154Z,4.70
2018-12-13T15:09:51.079Z,4.60
2018-12-13T15:12:21.629Z,4.50
2018-12-13T15:14:50.703Z,4.60
2018-12-13T15:17:21.466Z,4.40
2018-12-13T15:19:51.751Z,4.50
2018-12-13T15:22:22.012Z,4.40
2018-12-13T15:24:55.617Z,4.40
2018-12-13T15:27:27.883Z,4.40
2018-12-13T15:29:57.823Z,4.40
2018-12-13T15:32:28.331Z,4.30
2018-12-13T15:35:01.043Z,4.30
2018-12-13T15:37:34.164Z,4.30
2018-12-13T15:40:03.597Z,4.40
2018-12-13T15:42:32.730Z,4.30
2018-12-13T15:45:02.354Z,4.40
2018-12-13T15:47:31.443Z,4.40
2018-12-13T15:50:00.522Z,4.50
2018-12-13T15:52:29.756Z,4.40
2018-12-13T15:54:58.817Z,4.30
2018-12-13T15:57:29.126Z,4.40
2018-12-13T15:59:58.325Z,4.40
2018-12-13T16:02:27.552Z,4.30
2018-12-13T16:04:56.712Z,4.30
2018-12-13T16:07:25.845Z,4.30
2018-12-13T16:09:54.916Z,4.30
2018-12-13T16:12:24.036Z,4.20
2018-12-13T16:14:53.148Z,4.40
2018-12-13T16:17:22.261Z,4.40
2018-12-13T16:19:51.536Z,4.40
2018-12-13T16:22:20.766Z,4.40
2018-12-13T16:24:49.926Z,4.40
2018-12-13T16:27:19.273Z,4.40
2018-12-13T16:29:51.052Z,4.50
2018-12-13T16:32:22.365Z,4.50
2018-12-13T16:34:53.945Z,4.40
2018-12-13T16:37:26.100Z,4.60
2018-12-13T16:39:55.616Z,4.50
2018-12-13T16:42:25.598Z,4.50
2018-12-13T16:44:57.188Z,4.40
2018-12-13T16:47:26.758Z,4.50
2018-12-13T16:49:59.643Z,4.50
2018-12-13T16:52:31.266Z,4.40
2018-12-13T16:55:06.597Z,4.60
2018-12-13T16:57:39.892Z,4.60
2018-12-13T17:00:10.739Z,4.50
2018-12-13T17:02:47.407Z,4.50
2018-12-13T17:05:20.803Z,4.50
2018-12-13T17:08:00.641Z,4.40
2018-12-13T17:10:35.934Z,4.50
2018-12-13T17:13:10.348Z,4.50
2018-12-13T17:15:45.234Z,4.60
2018-12-13T17:18:19.740Z,4.60
2018-12-13T17:20:57.864Z,4.60
2018-12-13T17:23:34.722Z,4.60
2018-12-13T17:26:09.675Z,4.50
2018-12-13T17:28:42.244Z,4.60
2018-12-13T17:31:13.252Z,4.60
2018-12-13T17:33:45.965Z,4.60
2018-12-13T17:36:18.132Z,4.60
2018-12-13T17:41:23.504Z,4.60
2018-12-13T17:43:56.612Z,4.50
2018-12-13T17:46:31.278Z,4.50
2018-12-13T17:49:04.186Z,4.50
2018-12-13T17:51:40.201Z,4.50
2018-12-13T17:54:13.102Z,4.50
2018-12-13T17:56:49.566Z,4.60
2018-12-13T17:59:26.432Z,4.60
2018-12-13T18:02:02.333Z,4.70
2018-12-13T18:04:36.009Z,4.60
2018-12-13T18:07:11.389Z,4.60
2018-12-13T18:09:44.427Z,4.50
2018-12-13T18:12:17.344Z,4.50
2018-12-13T18:14:50.561Z,4.40
2018-12-13T18:17:23.419Z,4.50
2018-12-13T18:19:56.079Z,4.50
2018-12-13T18:22:28.724Z,4.60
2018-12-13T18:25:01.834Z,4.60
2018-12-13T18:27:34.828Z,4.50
2018-12-13T18:30:10.595Z,4.40
2018-12-13T18:32:47.342Z,4.50
2018-12-13T18:35:26.326Z,4.40
2018-12-13T18:38:00.561Z,4.30
2018-12-13T18:40:35.657Z,4.30
2018-12-13T18:43:06.117Z,4.30
2018-12-13T18:45:41.067Z,4.30
2018-12-13T18:48:11.448Z,4.30
2018-12-13T18:50:47.656Z,4.30
2018-12-13T18:53:17.300Z,4.40
2018-12-13T18:55:50.653Z,4.40
2018-12-13T18:58:20.153Z,4.30
2018-12-13T19:00:49.784Z,4.20
2018-12-13T19:03:22.040Z,4.30
2018-12-13T19:05:51.662Z,4.20
2018-12-13T19:08:20.985Z,4.20
2018-12-13T19:10:50.256Z,4.20
2018-12-13T19:13:19.428Z,4.20
2018-12-13T19:16:05.887Z,4.10
2018-12-13T19:18:36.728Z,4.10
2018-12-13T19:21:12.070Z,4.10
2018-12-13T19:23:44.627Z,4.20
2018-12-13T19:26:17.167Z,4.30
2018-12-13T19:28:53.874Z,4.30
2018-12-13T19:31:23.239Z,4.30
2018-12-13T19:33:52.503Z,4.30
2018-12-13T19:36:21.630Z,4.30
2018-12-13T19:38:51.446Z,4.30
2018-12-13T19:41:20.986Z,4.30
2018-12-13T19:43:51.271Z,4.20
2018-12-13T19:46:20.382Z,4.30
2018-12-13T19:48:50.782Z,4.30
2018-12-13T19:51:20.748Z,4.30
2018-12-13T19:53:49.886Z,4.30
2018-12-13T19:56:19.086Z,4.40
2018-12-13T19:58:50.059Z,4.20
2018-12-13T20:01:19.143Z,4.30
2018-12-13T20:03:48.640Z,4.40
2018-12-13T20:06:18.043Z,4.40
2018-12-13T20:09:05.668Z,4.40
2018-12-13T20:11:37.283Z,4.40
2018-12-13T20:14:06.599Z,4.40
2018-12-13T20:16:35.689Z,4.40
2018-12-13T20:19:04.869Z,4.40
2018-12-13T20:21:34.177Z,4.40
2018-12-13T20:24:03.252Z,4.30
2018-12-13T20:26:32.724Z,4.30
2018-12-13T20:29:01.956Z,4.30
2018-12-13T20:31:31.027Z,4.10
2018-12-13T20:34:00.144Z,4.20
2018-12-13T20:36:29.194Z,4.30
2018-12-13T20:38:58.292Z,4.10
2018-12-13T20:41:27.336Z,4.20
2018-12-13T20:43:56.735Z,4.20
2018-12-13T20:46:27.569Z,4.20
2018-12-13T20:48:57.139Z,4.30
2018-12-13T20:51:26.401Z,4.40
2018-12-13T20:53:55.607Z,4.20
2018-12-13T20:56:24.672Z,4.20
2018-12-13T20:58:54.267Z,4.20
2018-12-13T21:01:31.970Z,4.10
2018-12-13T21:04:03.610Z,4.10
2018-12-13T21:06:34.342Z,4.20
2018-12-13T21:09:09.163Z,4.10
2018-12-13T21:11:41.769Z,4.00
2018-12-13T21:14:15.840Z,4.10
2018-12-13T21:16:48.086Z,4.10
2018-12-13T21:19:28.636Z,4.10
2018-12-13T21:25:06.408Z,4.10
2018-12-13T21:30:45.409Z,4.10
2018-12-13T21:33:20.414Z,4.10
2018-12-13T21:35:55.968Z,4.10
2018-12-13T21:38:28.588Z,4.10
2018-12-13T21:41:02.011Z,4.10
2018-12-13T21:43:34.647Z,4.10
2018-12-13T21:46:07.951Z,4.00
2018-12-13T21:48:47.243Z,4.00
2018-12-13T21:51:21.356Z,4.10
2018-12-13T21:53:54.320Z,4.00
